sensor_id;sensor_type;location;lat;lon;timestamp;temperature;humidity
34644;DHT22;26931;43.498;-1.506;2022-11-18T00:00:48;15.30;91.50
34644;DHT22;26931;43.498;-1.506;2022-11-18T00:03:14;15.30;91.50
34644;DHT22;26931;43.498;-1.506;2022-11-18T00:05:40;15.30;91.60
34644;DHT22;26931;43.498;-1.506;2022-11-18T00:08:05;15.30;91.70
34644;DHT22;26931;43.498;-1.506;2022-11-18T00:10:32;15.30;91.90
34644;DHT22;26931;43.498;-1.506;2022-11-18T00:12:58;15.40;91.90
34644;DHT22;26931;43.498;-1.506;2022-11-18T00:15:42;15.40;91.90
34644;DHT22;26931;43.498;-1.506;2022-11-18T00:18:08;15.40;92.00
34644;DHT22;26931;43.498;-1.506;2022-11-18T00:20:34;15.40;92.00
34644;DHT22;26931;43.498;-1.506;2022-11-18T00:23:00;15.40;92.00
34644;DHT22;26931;43.498;-1.506;2022-11-18T00:25:26;15.40;92.10
34644;DHT22;26931;43.498;-1.506;2022-11-18T00:27:53;15.40;92.20
34644;DHT22;26931;43.498;-1.506;2022-11-18T00:30:19;15.30;92.20
34644;DHT22;26931;43.498;-1.506;2022-11-18T00:32:45;15.30;92.40
34644;DHT22;26931;43.498;-1.506;2022-11-18T00:35:11;15.30;92.40
34644;DHT22;26931;43.498;-1.506;2022-11-18T00:37:37;15.20;92.30
34644;DHT22;26931;43.498;-1.506;2022-11-18T00:40:03;15.20;92.40
34644;DHT22;26931;43.498;-1.506;2022-11-18T00:42:29;15.00;92.40
34644;DHT22;26931;43.498;-1.506;2022-11-18T00:45:13;15.20;92.50
34644;DHT22;26931;43.498;-1.506;2022-11-18T00:47:39;15.20;92.50
34644;DHT22;26931;43.498;-1.506;2022-11-18T00:50:05;15.20;92.50
34644;DHT22;26931;43.498;-1.506;2022-11-18T00:52:31;15.10;92.60
34644;DHT22;26931;43.498;-1.506;2022-11-18T00:54:57;15.20;92.70
34644;DHT22;26931;43.498;-1.506;2022-11-18T00:57:23;15.10;92.90
34644;DHT22;26931;43.498;-1.506;2022-11-18T00:59:49;15.10;92.90
34644;DHT22;26931;43.498;-1.506;2022-11-18T01:02:15;15.00;92.90
34644;DHT22;26931;43.498;-1.506;2022-11-18T01:04:41;15.00;92.90
34644;DHT22;26931;43.498;-1.506;2022-11-18T01:07:06;15.00;92.80
34644;DHT22;26931;43.498;-1.506;2022-11-18T01:09:32;15.10;92.70
34644;DHT22;26931;43.498;-1.506;2022-11-18T01:11:58;15.00;92.40
34644;DHT22;26931;43.498;-1.506;2022-11-18T01:14:42;15.00;92.40
34644;DHT22;26931;43.498;-1.506;2022-11-18T01:17:08;15.00;92.30
34644;DHT22;26931;43.498;-1.506;2022-11-18T01:19:34;15.00;92.10
34644;DHT22;26931;43.498;-1.506;2022-11-18T01:22:00;15.00;92.10
34644;DHT22;26931;43.498;-1.506;2022-11-18T01:24:29;15.00;92.10
34644;DHT22;26931;43.498;-1.506;2022-11-18T01:27:01;15.00;92.10
34644;DHT22;26931;43.498;-1.506;2022-11-18T01:29:27;15.00;92.10
34644;DHT22;26931;43.498;-1.506;2022-11-18T01:31:53;15.00;92.20
34644;DHT22;26931;43.498;-1.506;2022-11-18T01:34:18;15.00;92.20
34644;DHT22;26931;43.498;-1.506;2022-11-18T01:36:44;15.10;92.20
34644;DHT22;26931;43.498;-1.506;2022-11-18T01:39:10;15.10;92.20
34644;DHT22;26931;43.498;-1.506;2022-11-18T01:41:36;15.10;92.10
34644;DHT22;26931;43.498;-1.506;2022-11-18T01:44:52;15.10;92.10
34644;DHT22;26931;43.498;-1.506;2022-11-18T01:46:51;15.10;92.10
34644;DHT22;26931;43.498;-1.506;2022-11-18T01:49:18;15.20;92.10
34644;DHT22;26931;43.498;-1.506;2022-11-18T01:51:50;15.20;92.20
34644;DHT22;26931;43.498;-1.506;2022-11-18T01:54:23;15.20;92.10
34644;DHT22;26931;43.498;-1.506;2022-11-18T01:56:53;15.20;92.20
34644;DHT22;26931;43.498;-1.506;2022-11-18T01:59:29;15.20;92.20
34644;DHT22;26931;43.498;-1.506;2022-11-18T02:01:56;15.40;92.30
34644;DHT22;26931;43.498;-1.506;2022-11-18T02:04:22;15.20;92.20
34644;DHT22;26931;43.498;-1.506;2022-11-18T02:06:49;15.20;92.00
34644;DHT22;26931;43.498;-1.506;2022-11-18T02:09:16;15.20;91.80
34644;DHT22;26931;43.498;-1.506;2022-11-18T02:11:42;15.10;91.50
34644;DHT22;26931;43.498;-1.506;2022-11-18T02:14:34;15.10;91.30
34644;DHT22;26931;43.498;-1.506;2022-11-18T02:19:49;15.00;91.30
34644;DHT22;26931;43.498;-1.506;2022-11-18T02:22:45;15.00;91.30
34644;DHT22;26931;43.498;-1.506;2022-11-18T02:33:51;14.80;91.30
34644;DHT22;26931;43.498;-1.506;2022-11-18T02:36:30;14.80;91.20
34644;DHT22;26931;43.498;-1.506;2022-11-18T02:39:07;14.70;91.10
34644;DHT22;26931;43.498;-1.506;2022-11-18T02:41:35;14.70;91.00
34644;DHT22;26931;43.498;-1.506;2022-11-18T02:44:15;14.70;91.00
34644;DHT22;26931;43.498;-1.506;2022-11-18T02:46:45;14.60;91.00
34644;DHT22;26931;43.498;-1.506;2022-11-18T02:49:16;14.60;91.10
34644;DHT22;26931;43.498;-1.506;2022-11-18T02:51:44;14.50;91.10
34644;DHT22;26931;43.498;-1.506;2022-11-18T02:54:12;14.40;91.10
34644;DHT22;26931;43.498;-1.506;2022-11-18T02:56:41;14.40;91.20
34644;DHT22;26931;43.498;-1.506;2022-11-18T02:59:08;14.40;91.30
34644;DHT22;26931;43.498;-1.506;2022-11-18T03:01:35;14.50;91.40
34644;DHT22;26931;43.498;-1.506;2022-11-18T03:04:01;14.50;91.60
34644;DHT22;26931;43.498;-1.506;2022-11-18T03:09:14;14.40;91.90
34644;DHT22;26931;43.498;-1.506;2022-11-18T03:12:06;14.30;92.00
34644;DHT22;26931;43.498;-1.506;2022-11-18T03:20:28;14.20;92.20
34644;DHT22;26931;43.498;-1.506;2022-11-18T03:23:13;14.20;92.10
34644;DHT22;26931;43.498;-1.506;2022-11-18T03:25:50;14.20;92.10
34644;DHT22;26931;43.498;-1.506;2022-11-18T03:28:24;14.20;92.30
34644;DHT22;26931;43.498;-1.506;2022-11-18T03:31:11;14.20;92.40
34644;DHT22;26931;43.498;-1.506;2022-11-18T03:33:42;14.20;92.40
34644;DHT22;26931;43.498;-1.506;2022-11-18T03:36:11;14.20;92.20
34644;DHT22;26931;43.498;-1.506;2022-11-18T03:38:44;14.30;92.00
34644;DHT22;26931;43.498;-1.506;2022-11-18T03:41:12;14.30;91.80
34644;DHT22;26931;43.498;-1.506;2022-11-18T03:43:42;14.30;91.90
34644;DHT22;26931;43.498;-1.506;2022-11-18T03:46:14;14.40;92.00
34644;DHT22;26931;43.498;-1.506;2022-11-18T03:48:47;14.30;92.10
34644;DHT22;26931;43.498;-1.506;2022-11-18T03:51:34;14.30;92.40
34644;DHT22;26931;43.498;-1.506;2022-11-18T03:54:16;14.30;92.50
34644;DHT22;26931;43.498;-1.506;2022-11-18T03:56:48;14.40;92.60
34644;DHT22;26931;43.498;-1.506;2022-11-18T03:59:20;14.30;92.60
34644;DHT22;26931;43.498;-1.506;2022-11-18T04:02:01;14.40;92.70
34644;DHT22;26931;43.498;-1.506;2022-11-18T04:04:28;14.40;92.80
34644;DHT22;26931;43.498;-1.506;2022-11-18T04:09:42;14.30;92.80
34644;DHT22;26931;43.498;-1.506;2022-11-18T04:12:15;14.50;93.00
34644;DHT22;26931;43.498;-1.506;2022-11-18T04:14:43;14.50;93.00
34644;DHT22;26931;43.498;-1.506;2022-11-18T04:17:15;14.50;93.10
34644;DHT22;26931;43.498;-1.506;2022-11-18T04:19:43;14.40;93.10
34644;DHT22;26931;43.498;-1.506;2022-11-18T04:22:09;14.50;93.20
34644;DHT22;26931;43.498;-1.506;2022-11-18T04:24:35;14.40;93.20
34644;DHT22;26931;43.498;-1.506;2022-11-18T04:27:02;14.40;93.30
34644;DHT22;26931;43.498;-1.506;2022-11-18T04:29:29;14.40;93.30
34644;DHT22;26931;43.498;-1.506;2022-11-18T04:31:55;14.40;92.80
34644;DHT22;26931;43.498;-1.506;2022-11-18T04:34:21;14.60;92.30
34644;DHT22;26931;43.498;-1.506;2022-11-18T04:36:48;14.30;91.90
34644;DHT22;26931;43.498;-1.506;2022-11-18T04:39:14;14.30;91.70
34644;DHT22;26931;43.498;-1.506;2022-11-18T04:41:40;14.20;91.70
34644;DHT22;26931;43.498;-1.506;2022-11-18T04:44:31;14.20;91.60
34644;DHT22;26931;43.498;-1.506;2022-11-18T04:47:03;14.00;91.50
34644;DHT22;26931;43.498;-1.506;2022-11-18T04:49:30;14.00;91.40
34644;DHT22;26931;43.498;-1.506;2022-11-18T04:51:56;14.20;91.60
34644;DHT22;26931;43.498;-1.506;2022-11-18T04:54:23;14.00;91.50
34644;DHT22;26931;43.498;-1.506;2022-11-18T04:56:50;13.90;91.60
34644;DHT22;26931;43.498;-1.506;2022-11-18T04:59:19;13.90;91.60
34644;DHT22;26931;43.498;-1.506;2022-11-18T05:01:46;13.80;91.70
34644;DHT22;26931;43.498;-1.506;2022-11-18T05:04:14;13.80;91.70
34644;DHT22;26931;43.498;-1.506;2022-11-18T05:06:40;13.70;91.90
34644;DHT22;26931;43.498;-1.506;2022-11-18T05:09:06;13.70;92.20
34644;DHT22;26931;43.498;-1.506;2022-11-18T05:11:32;13.70;92.10
34644;DHT22;26931;43.498;-1.506;2022-11-18T05:14:16;13.70;92.30
34644;DHT22;26931;43.498;-1.506;2022-11-18T05:16:43;13.70;92.30
34644;DHT22;26931;43.498;-1.506;2022-11-18T05:19:09;13.70;92.40
34644;DHT22;26931;43.498;-1.506;2022-11-18T05:21:35;13.70;92.60
34644;DHT22;26931;43.498;-1.506;2022-11-18T05:24:03;13.70;92.60
34644;DHT22;26931;43.498;-1.506;2022-11-18T05:26:29;13.70;92.90
34644;DHT22;26931;43.498;-1.506;2022-11-18T05:28:55;13.70;93.00
34644;DHT22;26931;43.498;-1.506;2022-11-18T05:31:21;13.70;93.10
34644;DHT22;26931;43.498;-1.506;2022-11-18T05:33:47;13.80;93.20
34644;DHT22;26931;43.498;-1.506;2022-11-18T05:36:16;13.80;93.20
34644;DHT22;26931;43.498;-1.506;2022-11-18T05:38:42;13.80;93.40
34644;DHT22;26931;43.498;-1.506;2022-11-18T05:41:09;13.80;93.40
34644;DHT22;26931;43.498;-1.506;2022-11-18T05:43:55;14.00;93.50
34644;DHT22;26931;43.498;-1.506;2022-11-18T05:46:21;14.00;93.60
34644;DHT22;26931;43.498;-1.506;2022-11-18T05:48:48;13.80;93.60
34644;DHT22;26931;43.498;-1.506;2022-11-18T05:51:13;13.70;93.60
34644;DHT22;26931;43.498;-1.506;2022-11-18T05:53:39;13.80;93.70
34644;DHT22;26931;43.498;-1.506;2022-11-18T05:56:14;13.80;93.70
34644;DHT22;26931;43.498;-1.506;2022-11-18T05:58:41;13.80;93.70
34644;DHT22;26931;43.498;-1.506;2022-11-18T06:01:07;13.80;93.70
34644;DHT22;26931;43.498;-1.506;2022-11-18T06:03:37;13.70;93.70
34644;DHT22;26931;43.498;-1.506;2022-11-18T06:06:04;13.70;93.80
34644;DHT22;26931;43.498;-1.506;2022-11-18T06:08:41;13.70;93.80
34644;DHT22;26931;43.498;-1.506;2022-11-18T06:11:12;14.00;93.90
34644;DHT22;26931;43.498;-1.506;2022-11-18T06:13:47;13.60;93.80
34644;DHT22;26931;43.498;-1.506;2022-11-18T06:16:17;13.70;93.80
34644;DHT22;26931;43.498;-1.506;2022-11-18T06:18:44;13.80;93.80
34644;DHT22;26931;43.498;-1.506;2022-11-18T06:21:10;13.80;93.80
34644;DHT22;26931;43.498;-1.506;2022-11-18T06:23:38;13.80;93.70
34644;DHT22;26931;43.498;-1.506;2022-11-18T06:26:07;13.80;94.00
34644;DHT22;26931;43.498;-1.506;2022-11-18T06:28:34;13.80;93.60
34644;DHT22;26931;43.498;-1.506;2022-11-18T06:31:01;13.80;93.50
34644;DHT22;26931;43.498;-1.506;2022-11-18T06:33:26;13.90;93.40
34644;DHT22;26931;43.498;-1.506;2022-11-18T06:35:52;13.90;93.40
34644;DHT22;26931;43.498;-1.506;2022-11-18T06:38:20;13.90;93.30
34644;DHT22;26931;43.498;-1.506;2022-11-18T06:40:47;14.00;93.20
34644;DHT22;26931;43.498;-1.506;2022-11-18T06:43:13;14.00;92.80
34644;DHT22;26931;43.498;-1.506;2022-11-18T06:46:01;14.10;92.50
34644;DHT22;26931;43.498;-1.506;2022-11-18T06:48:46;14.10;92.10
34644;DHT22;26931;43.498;-1.506;2022-11-18T06:51:12;14.00;92.00
34644;DHT22;26931;43.498;-1.506;2022-11-18T06:53:38;14.00;91.90
34644;DHT22;26931;43.498;-1.506;2022-11-18T06:56:12;14.00;91.80
34644;DHT22;26931;43.498;-1.506;2022-11-18T06:58:38;14.00;91.80
34644;DHT22;26931;43.498;-1.506;2022-11-18T07:01:15;14.10;91.70
34644;DHT22;26931;43.498;-1.506;2022-11-18T07:03:43;14.00;91.70
34644;DHT22;26931;43.498;-1.506;2022-11-18T07:06:11;14.00;91.80
34644;DHT22;26931;43.498;-1.506;2022-11-18T07:08:38;14.10;91.90
34644;DHT22;26931;43.498;-1.506;2022-11-18T07:11:07;14.00;91.80
34644;DHT22;26931;43.498;-1.506;2022-11-18T07:13:33;14.00;91.90
34644;DHT22;26931;43.498;-1.506;2022-11-18T07:16:08;14.00;92.00
34644;DHT22;26931;43.498;-1.506;2022-11-18T07:18:36;14.00;91.90
34644;DHT22;26931;43.498;-1.506;2022-11-18T07:21:04;14.00;91.80
34644;DHT22;26931;43.498;-1.506;2022-11-18T07:23:31;13.90;91.80
34644;DHT22;26931;43.498;-1.506;2022-11-18T07:25:58;13.90;91.80
34644;DHT22;26931;43.498;-1.506;2022-11-18T07:28:25;13.80;91.90
34644;DHT22;26931;43.498;-1.506;2022-11-18T07:30:51;13.90;91.90
34644;DHT22;26931;43.498;-1.506;2022-11-18T07:33:17;13.90;91.80
34644;DHT22;26931;43.498;-1.506;2022-11-18T07:35:43;13.90;91.80
34644;DHT22;26931;43.498;-1.506;2022-11-18T07:38:09;13.80;91.70
34644;DHT22;26931;43.498;-1.506;2022-11-18T07:40:34;13.80;91.80
34644;DHT22;26931;43.498;-1.506;2022-11-18T07:43:00;13.80;91.90
34644;DHT22;26931;43.498;-1.506;2022-11-18T07:45:26;13.70;92.00
34644;DHT22;26931;43.498;-1.506;2022-11-18T07:47:52;13.80;92.20
34644;DHT22;26931;43.498;-1.506;2022-11-18T07:50:17;13.70;92.20
34644;DHT22;26931;43.498;-1.506;2022-11-18T07:52:43;13.70;92.30
34644;DHT22;26931;43.498;-1.506;2022-11-18T07:55:09;13.80;92.40
34644;DHT22;26931;43.498;-1.506;2022-11-18T07:57:35;13.80;92.50
34644;DHT22;26931;43.498;-1.506;2022-11-18T08:00:01;13.80;92.60
34644;DHT22;26931;43.498;-1.506;2022-11-18T08:02:28;13.80;92.80
34644;DHT22;26931;43.498;-1.506;2022-11-18T08:04:54;13.80;92.80
34644;DHT22;26931;43.498;-1.506;2022-11-18T08:07:20;13.80;92.80
34644;DHT22;26931;43.498;-1.506;2022-11-18T08:09:46;13.80;92.90
34644;DHT22;26931;43.498;-1.506;2022-11-18T08:12:12;13.80;92.80
34644;DHT22;26931;43.498;-1.506;2022-11-18T08:14:38;13.70;92.70
34644;DHT22;26931;43.498;-1.506;2022-11-18T08:17:04;13.80;92.60
34644;DHT22;26931;43.498;-1.506;2022-11-18T08:19:34;14.10;92.70
34644;DHT22;26931;43.498;-1.506;2022-11-18T08:22:00;13.70;92.60
34644;DHT22;26931;43.498;-1.506;2022-11-18T08:24:26;13.70;92.70
34644;DHT22;26931;43.498;-1.506;2022-11-18T08:26:52;13.80;92.80
34644;DHT22;26931;43.498;-1.506;2022-11-18T08:29:18;13.80;92.90
34644;DHT22;26931;43.498;-1.506;2022-11-18T08:31:44;13.70;93.00
34644;DHT22;26931;43.498;-1.506;2022-11-18T08:34:10;13.80;93.00
34644;DHT22;26931;43.498;-1.506;2022-11-18T08:36:37;13.80;93.00
34644;DHT22;26931;43.498;-1.506;2022-11-18T08:39:06;13.80;92.80
34644;DHT22;26931;43.498;-1.506;2022-11-18T08:41:36;13.70;92.70
34644;DHT22;26931;43.498;-1.506;2022-11-18T08:44:03;13.70;92.50
34644;DHT22;26931;43.498;-1.506;2022-11-18T08:46:29;13.90;92.50
34644;DHT22;26931;43.498;-1.506;2022-11-18T08:48:56;13.70;92.20
34644;DHT22;26931;43.498;-1.506;2022-11-18T08:51:22;13.70;91.90
34644;DHT22;26931;43.498;-1.506;2022-11-18T08:53:48;13.70;91.80
34644;DHT22;26931;43.498;-1.506;2022-11-18T08:56:19;13.80;91.80
34644;DHT22;26931;43.498;-1.506;2022-11-18T08:58:46;13.70;91.80
34644;DHT22;26931;43.498;-1.506;2022-11-18T09:01:12;13.70;91.90
34644;DHT22;26931;43.498;-1.506;2022-11-18T09:03:39;13.70;92.00
34644;DHT22;26931;43.498;-1.506;2022-11-18T09:06:16;13.70;92.00
34644;DHT22;26931;43.498;-1.506;2022-11-18T09:08:42;13.70;92.20
34644;DHT22;26931;43.498;-1.506;2022-11-18T09:11:17;13.70;92.20
34644;DHT22;26931;43.498;-1.506;2022-11-18T09:13:44;13.70;92.20
34644;DHT22;26931;43.498;-1.506;2022-11-18T09:16:10;13.70;92.30
34644;DHT22;26931;43.498;-1.506;2022-11-18T09:18:37;13.70;92.30
34644;DHT22;26931;43.498;-1.506;2022-11-18T09:21:05;13.70;92.40
34644;DHT22;26931;43.498;-1.506;2022-11-18T09:23:33;13.70;92.30
34644;DHT22;26931;43.498;-1.506;2022-11-18T09:26:05;13.80;92.30
34644;DHT22;26931;43.498;-1.506;2022-11-18T09:28:33;13.90;92.30
34644;DHT22;26931;43.498;-1.506;2022-11-18T09:31:06;13.80;92.30
34644;DHT22;26931;43.498;-1.506;2022-11-18T09:33:33;14.00;92.40
34644;DHT22;26931;43.498;-1.506;2022-11-18T09:35:59;14.00;92.30
34644;DHT22;26931;43.498;-1.506;2022-11-18T09:38:28;14.10;92.30
34644;DHT22;26931;43.498;-1.506;2022-11-18T09:49:25;14.10;92.30
34644;DHT22;26931;43.498;-1.506;2022-11-18T09:51:53;14.00;92.30
34644;DHT22;26931;43.498;-1.506;2022-11-18T09:54:22;14.00;92.40
34644;DHT22;26931;43.498;-1.506;2022-11-18T09:56:50;14.00;92.50
34644;DHT22;26931;43.498;-1.506;2022-11-18T09:59:19;13.90;92.70
34644;DHT22;26931;43.498;-1.506;2022-11-18T10:01:49;13.90;92.70
34644;DHT22;26931;43.498;-1.506;2022-11-18T10:04:19;13.90;92.80
34644;DHT22;26931;43.498;-1.506;2022-11-18T10:06:47;13.90;92.90
34644;DHT22;26931;43.498;-1.506;2022-11-18T10:09:34;13.90;93.00
34644;DHT22;26931;43.498;-1.506;2022-11-18T10:12:31;13.90;93.10
34644;DHT22;26931;43.498;-1.506;2022-11-18T10:15:25;13.80;93.20
34644;DHT22;26931;43.498;-1.506;2022-11-18T10:18:14;13.80;93.30
34644;DHT22;26931;43.498;-1.506;2022-11-18T10:23:43;13.80;93.30
34644;DHT22;26931;43.498;-1.506;2022-11-18T10:26:11;14.00;93.40
34644;DHT22;26931;43.498;-1.506;2022-11-18T10:28:37;13.70;93.30
34644;DHT22;26931;43.498;-1.506;2022-11-18T10:31:09;13.70;93.30
34644;DHT22;26931;43.498;-1.506;2022-11-18T10:33:35;13.70;93.30
34644;DHT22;26931;43.498;-1.506;2022-11-18T10:38:42;13.60;93.00
34644;DHT22;26931;43.498;-1.506;2022-11-18T10:41:14;13.60;92.80
34644;DHT22;26931;43.498;-1.506;2022-11-18T10:43:50;13.50;92.60
34644;DHT22;26931;43.498;-1.506;2022-11-18T10:46:30;13.60;92.60
34644;DHT22;26931;43.498;-1.506;2022-11-18T10:51:36;13.60;92.60
34644;DHT22;26931;43.498;-1.506;2022-11-18T10:54:16;13.50;92.60
34644;DHT22;26931;43.498;-1.506;2022-11-18T10:56:52;13.50;92.80
34644;DHT22;26931;43.498;-1.506;2022-11-18T11:02:19;13.40;92.90
34644;DHT22;26931;43.498;-1.506;2022-11-18T11:04:47;13.50;93.10
34644;DHT22;26931;43.498;-1.506;2022-11-18T11:07:30;13.60;93.10
34644;DHT22;26931;43.498;-1.506;2022-11-18T11:12:35;13.70;93.30
34644;DHT22;26931;43.498;-1.506;2022-11-18T11:15:40;13.70;93.70
34644;DHT22;26931;43.498;-1.506;2022-11-18T11:21:00;13.80;93.60
34644;DHT22;26931;43.498;-1.506;2022-11-18T11:23:26;13.80;93.60
34644;DHT22;26931;43.498;-1.506;2022-11-18T11:26:11;13.80;93.40
34644;DHT22;26931;43.498;-1.506;2022-11-18T11:29:21;13.90;93.50
34644;DHT22;26931;43.498;-1.506;2022-11-18T11:37:51;14.10;93.50
34644;DHT22;26931;43.498;-1.506;2022-11-18T11:43:23;14.10;93.70
34644;DHT22;26931;43.498;-1.506;2022-11-18T11:46:26;14.00;93.80
34644;DHT22;26931;43.498;-1.506;2022-11-18T11:49:01;14.20;93.90
34644;DHT22;26931;43.498;-1.506;2022-11-18T11:51:53;14.20;94.00
34644;DHT22;26931;43.498;-1.506;2022-11-18T11:54:33;14.40;94.10
34644;DHT22;26931;43.498;-1.506;2022-11-18T11:57:10;14.60;94.10
34644;DHT22;26931;43.498;-1.506;2022-11-18T12:00:11;14.40;94.00
34644;DHT22;26931;43.498;-1.506;2022-11-18T12:02:48;14.40;94.00
34644;DHT22;26931;43.498;-1.506;2022-11-18T12:05:22;14.40;94.00
34644;DHT22;26931;43.498;-1.506;2022-11-18T12:07:57;14.40;94.20
34644;DHT22;26931;43.498;-1.506;2022-11-18T12:10:40;14.30;94.20
34644;DHT22;26931;43.498;-1.506;2022-11-18T12:21:06;14.50;94.60
34644;DHT22;26931;43.498;-1.506;2022-11-18T12:23:33;14.40;94.30
34644;DHT22;26931;43.498;-1.506;2022-11-18T12:26:02;14.40;93.90
34644;DHT22;26931;43.498;-1.506;2022-11-18T12:28:40;14.40;93.50
34644;DHT22;26931;43.498;-1.506;2022-11-18T12:33:52;14.40;92.80
34644;DHT22;26931;43.498;-1.506;2022-11-18T12:38:58;14.50;92.60
34644;DHT22;26931;43.498;-1.506;2022-11-18T12:44:26;14.40;92.50
34644;DHT22;26931;43.498;-1.506;2022-11-18T12:46:54;14.40;92.60
34644;DHT22;26931;43.498;-1.506;2022-11-18T12:51:52;14.50;92.60
34644;DHT22;26931;43.498;-1.506;2022-11-18T12:57:20;14.50;92.70
34644;DHT22;26931;43.498;-1.506;2022-11-18T12:59:47;14.50;92.80
34644;DHT22;26931;43.498;-1.506;2022-11-18T13:02:19;14.50;92.70
34644;DHT22;26931;43.498;-1.506;2022-11-18T13:05:24;14.50;92.70
34644;DHT22;26931;43.498;-1.506;2022-11-18T13:08:10;14.50;92.40
34644;DHT22;26931;43.498;-1.506;2022-11-18T13:13:29;14.40;92.10
34644;DHT22;26931;43.498;-1.506;2022-11-18T13:16:03;14.50;92.00
34644;DHT22;26931;43.498;-1.506;2022-11-18T13:18:55;14.20;91.80
34644;DHT22;26931;43.498;-1.506;2022-11-18T13:21:26;14.20;91.90
34644;DHT22;26931;43.498;-1.506;2022-11-18T13:24:15;14.20;92.00
34644;DHT22;26931;43.498;-1.506;2022-11-18T13:26:44;14.10;92.20
34644;DHT22;26931;43.498;-1.506;2022-11-18T13:34:47;13.80;92.50
34644;DHT22;26931;43.498;-1.506;2022-11-18T13:37:20;13.70;92.60
34644;DHT22;26931;43.498;-1.506;2022-11-18T13:39:47;13.60;92.70
34644;DHT22;26931;43.498;-1.506;2022-11-18T13:42:25;13.60;92.80
34644;DHT22;26931;43.498;-1.506;2022-11-18T13:44:53;13.80;92.90
34644;DHT22;26931;43.498;-1.506;2022-11-18T13:53:00;13.60;92.90
34644;DHT22;26931;43.498;-1.506;2022-11-18T13:55:37;13.50;92.90
34644;DHT22;26931;43.498;-1.506;2022-11-18T14:01:03;13.40;93.10
34644;DHT22;26931;43.498;-1.506;2022-11-18T14:03:46;13.40;93.30
34644;DHT22;26931;43.498;-1.506;2022-11-18T14:06:27;13.30;93.30
34644;DHT22;26931;43.498;-1.506;2022-11-18T14:09:17;13.30;93.50
34644;DHT22;26931;43.498;-1.506;2022-11-18T14:11:56;13.30;93.90
34644;DHT22;26931;43.498;-1.506;2022-11-18T14:14:32;13.30;93.70
34644;DHT22;26931;43.498;-1.506;2022-11-18T14:17:19;13.10;93.80
34644;DHT22;26931;43.498;-1.506;2022-11-18T14:19:56;13.30;94.00
34644;DHT22;26931;43.498;-1.506;2022-11-18T14:22:25;13.40;94.10
34644;DHT22;26931;43.498;-1.506;2022-11-18T14:24:59;13.30;94.10
34644;DHT22;26931;43.498;-1.506;2022-11-18T14:27:41;13.30;94.20
34644;DHT22;26931;43.498;-1.506;2022-11-18T14:30:33;13.30;94.20
34644;DHT22;26931;43.498;-1.506;2022-11-18T14:35:39;13.30;94.30
34644;DHT22;26931;43.498;-1.506;2022-11-18T14:38:14;13.30;94.40
34644;DHT22;26931;43.498;-1.506;2022-11-18T14:40:41;13.30;94.40
34644;DHT22;26931;43.498;-1.506;2022-11-18T14:43:09;13.30;94.50
34644;DHT22;26931;43.498;-1.506;2022-11-18T14:45:36;13.20;94.50
34644;DHT22;26931;43.498;-1.506;2022-11-18T14:48:03;13.30;94.50
34644;DHT22;26931;43.498;-1.506;2022-11-18T14:50:29;13.30;94.50
34644;DHT22;26931;43.498;-1.506;2022-11-18T14:52:55;13.50;94.50
34644;DHT22;26931;43.498;-1.506;2022-11-18T14:55:22;13.30;94.50
34644;DHT22;26931;43.498;-1.506;2022-11-18T14:57:48;13.30;94.50
34644;DHT22;26931;43.498;-1.506;2022-11-18T15:00:15;13.30;94.40
34644;DHT22;26931;43.498;-1.506;2022-11-18T15:02:41;13.20;94.40
34644;DHT22;26931;43.498;-1.506;2022-11-18T15:05:07;13.20;94.30
34644;DHT22;26931;43.498;-1.506;2022-11-18T15:07:33;13.20;94.20
34644;DHT22;26931;43.498;-1.506;2022-11-18T15:09:59;13.10;94.10
34644;DHT22;26931;43.498;-1.506;2022-11-18T15:12:26;13.20;94.10
34644;DHT22;26931;43.498;-1.506;2022-11-18T15:14:52;13.10;94.00
34644;DHT22;26931;43.498;-1.506;2022-11-18T15:17:17;13.10;94.00
34644;DHT22;26931;43.498;-1.506;2022-11-18T15:19:44;13.10;94.00
34644;DHT22;26931;43.498;-1.506;2022-11-18T15:22:10;13.00;94.00
34644;DHT22;26931;43.498;-1.506;2022-11-18T15:24:36;13.00;94.00
34644;DHT22;26931;43.498;-1.506;2022-11-18T15:27:02;13.00;94.00
34644;DHT22;26931;43.498;-1.506;2022-11-18T15:29:30;13.00;94.10
34644;DHT22;26931;43.498;-1.506;2022-11-18T15:31:56;13.00;94.00
34644;DHT22;26931;43.498;-1.506;2022-11-18T15:34:22;12.90;94.10
34644;DHT22;26931;43.498;-1.506;2022-11-18T15:36:48;12.90;94.10
34644;DHT22;26931;43.498;-1.506;2022-11-18T15:39:14;12.90;94.20
34644;DHT22;26931;43.498;-1.506;2022-11-18T15:41:41;12.90;94.10
34644;DHT22;26931;43.498;-1.506;2022-11-18T15:44:08;12.90;94.20
34644;DHT22;26931;43.498;-1.506;2022-11-18T15:46:34;13.10;94.40
34644;DHT22;26931;43.498;-1.506;2022-11-18T15:49:01;12.90;94.30
34644;DHT22;26931;43.498;-1.506;2022-11-18T15:51:28;12.90;94.30
34644;DHT22;26931;43.498;-1.506;2022-11-18T15:53:54;12.70;94.40
34644;DHT22;26931;43.498;-1.506;2022-11-18T15:59:15;12.80;94.40
34644;DHT22;26931;43.498;-1.506;2022-11-18T16:01:43;12.80;94.50
34644;DHT22;26931;43.498;-1.506;2022-11-18T16:04:12;12.80;94.50
34644;DHT22;26931;43.498;-1.506;2022-11-18T16:06:38;12.80;94.50
34644;DHT22;26931;43.498;-1.506;2022-11-18T16:09:05;12.80;94.50
34644;DHT22;26931;43.498;-1.506;2022-11-18T16:11:31;12.80;94.60
34644;DHT22;26931;43.498;-1.506;2022-11-18T16:14:17;12.80;94.60
34644;DHT22;26931;43.498;-1.506;2022-11-18T16:16:45;12.80;94.60
34644;DHT22;26931;43.498;-1.506;2022-11-18T16:19:13;12.80;94.70
34644;DHT22;26931;43.498;-1.506;2022-11-18T16:21:44;12.60;94.60
34644;DHT22;26931;43.498;-1.506;2022-11-18T16:24:16;12.80;94.70
34644;DHT22;26931;43.498;-1.506;2022-11-18T16:26:42;12.80;94.70
34644;DHT22;26931;43.498;-1.506;2022-11-18T16:29:10;12.80;94.70
34644;DHT22;26931;43.498;-1.506;2022-11-18T16:31:36;12.80;94.70
34644;DHT22;26931;43.498;-1.506;2022-11-18T16:36:45;12.80;94.80
34644;DHT22;26931;43.498;-1.506;2022-11-18T16:39:19;12.80;94.80
34644;DHT22;26931;43.498;-1.506;2022-11-18T16:41:48;12.80;94.80
34644;DHT22;26931;43.498;-1.506;2022-11-18T16:44:15;12.80;94.70
34644;DHT22;26931;43.498;-1.506;2022-11-18T16:46:46;12.80;94.70
34644;DHT22;26931;43.498;-1.506;2022-11-18T16:49:13;12.80;94.80
34644;DHT22;26931;43.498;-1.506;2022-11-18T16:51:41;12.80;94.80
34644;DHT22;26931;43.498;-1.506;2022-11-18T16:54:13;12.80;94.90
34644;DHT22;26931;43.498;-1.506;2022-11-18T16:56:41;12.80;95.30
34644;DHT22;26931;43.498;-1.506;2022-11-18T16:59:16;12.80;95.00
34644;DHT22;26931;43.498;-1.506;2022-11-18T17:01:42;12.80;95.00
34644;DHT22;26931;43.498;-1.506;2022-11-18T17:04:08;12.80;95.10
34644;DHT22;26931;43.498;-1.506;2022-11-18T17:06:36;12.70;95.20
34644;DHT22;26931;43.498;-1.506;2022-11-18T17:09:03;12.80;95.20
34644;DHT22;26931;43.498;-1.506;2022-11-18T17:11:29;12.80;95.30
34644;DHT22;26931;43.498;-1.506;2022-11-18T17:13:54;12.80;95.20
34644;DHT22;26931;43.498;-1.506;2022-11-18T17:16:21;12.80;95.20
34644;DHT22;26931;43.498;-1.506;2022-11-18T17:18:47;12.80;95.20